YXLT weather

Caboolture Hospital Helipad
Caboolture, Queensland, Australia

Public forecast

Using degrees Celsius for public forecast. Weather courtesy of forecast.io.

METAR (pilot weather report)

Closest report is Brisbane International Airport, 20.1 nm (37.1 km) SSE. Retrieved 2019/04/19 13:30 UTC (27 minutes ago):

YBBN 191330Z 15007KT 9999 FEW025 SCT100 BKN250 22/20 Q1022 FM1330 12010KT 9999 -SHRA FEW015 SCT025 INTER 1330/1630 3000 SHRA BKN012

TAF (pilot weather forecast)

Closest forecast is Brisbane International Airport, 20.1 nm (37.1 km) SSE. Retrieved 2019/04/19 12:00 UTC (2 hours ago):

TAF YBBN 191103Z 1912/2018 17010KT 9999 -SHRA FEW015 BKN025 OVC040 FM200000 12014KT 9999 -SHRA SCT025 BKN040 FM201200 17010KT 9999 -SHRA FEW015 BKN025 BKN040 INTER 1912/2018 3000 SHRA BKN012